Time,TemperatureF,DewpointF,PressureIn,WindDirection,WindDirectionDegrees,WindSpeedMPH,WindSpeedGustMPH,Humidity,HourlyPrecipIn,Conditions,Clouds,dailyrainin,SoftwareType,DateUTC
2013-05-05 00:05:00,56.3,54.0,30.03,SSW,196,0.0,1.0,93,0.00,,,0.00,weatherlink.com 1.10,2013-05-05 05:05:00,
2013-05-05 00:20:00,56.1,54.0,30.03,SSW,194,1.0,2.0,93,0.00,,,0.00,weatherlink.com 1.10,2013-05-05 05:20:00,
2013-05-05 00:35:00,55.7,54.0,30.03,SSW,194,0.0,0.0,94,0.00,,,0.00,weatherlink.com 1.10,2013-05-05 05:35:00,
2013-05-05 00:51:00,55.0,53.0,30.02,SSW,194,0.0,0.0,94,0.00,,,0.00,weatherlink.com 1.10,2013-05-05 05:51:00,
2013-05-05 01:06:00,54.5,53.0,30.02,WNW,298,4.0,5.0,94,0.00,,,0.00,weatherlink.com 1.10,2013-05-05 06:06:00,
2013-05-05 01:21:00,54.2,53.0,30.02,NW,326,2.0,3.0,95,0.00,,,0.00,weatherlink.com 1.10,2013-05-05 06:21:00,
2013-05-05 01:36:00,54.4,53.0,30.02,NW,323,2.0,3.0,95,0.00,,,0.00,weatherlink.com 1.10,2013-05-05 06:36:00,
2013-05-05 01:51:00,54.6,53.0,30.02,NW,319,3.0,4.0,94,0.00,,,0.00,weatherlink.com 1.10,2013-05-05 06:51:00,
2013-05-05 02:06:00,54.5,53.0,30.02,NNW,337,2.0,4.0,93,0.00,,,0.00,weatherlink.com 1.10,2013-05-05 07:06:00,
2013-05-05 02:21:00,54.3,52.0,30.01,North,353,3.0,5.0,93,0.00,,,0.00,weatherlink.com 1.10,2013-05-05 07:21:00,
2013-05-05 02:36:00,54.0,52.0,30.00,NNW,338,3.0,6.0,93,0.00,,,0.00,weatherlink.com 1.10,2013-05-05 07:36:00,
2013-05-05 02:51:00,53.8,52.0,30.00,NNW,345,4.0,7.0,93,0.00,,,0.00,weatherlink.com 1.10,2013-05-05 07:51:00,
2013-05-05 03:06:00,53.6,52.0,30.01,North,359,4.0,7.0,94,0.00,,,0.00,weatherlink.com 1.10,2013-05-05 08:06:00,
2013-05-05 03:21:00,53.3,52.0,30.01,North,9,8.0,8.0,95,0.00,,,0.00,weatherlink.com 1.10,2013-05-05 08:21:00,
2013-05-05 03:36:00,53.4,52.0,30.01,North,358,5.0,7.0,96,0.00,,,0.00,weatherlink.com 1.10,2013-05-05 08:36:00,
2013-05-05 03:51:00,53.2,52.0,30.00,NNE,14,6.0,7.0,96,0.00,,,0.00,weatherlink.com 1.10,2013-05-05 08:51:00,
2013-05-05 04:06:00,53.1,52.0,30.00,North,11,5.0,7.0,97,0.00,,,0.00,weatherlink.com 1.10,2013-05-05 09:06:00,
2013-05-05 04:21:00,52.8,52.0,30.00,North,9,7.0,7.0,97,0.00,,,0.00,weatherlink.com 1.10,2013-05-05 09:21:00,
2013-05-05 04:36:00,52.8,52.0,30.00,ENE,67,3.0,8.0,97,0.00,,,0.00,weatherlink.com 1.10,2013-05-05 09:36:00,
2013-05-05 04:51:00,53.0,52.0,30.00,NE,44,4.0,8.0,97,0.00,,,0.00,weatherlink.com 1.10,2013-05-05 09:51:00,
2013-05-05 05:06:00,53.0,52.0,30.00,NNE,18,5.0,7.0,97,0.00,,,0.00,weatherlink.com 1.10,2013-05-05 10:06:00,
2013-05-05 05:21:00,52.9,52.0,30.00,North,8,3.0,8.0,97,0.00,,,0.00,weatherlink.com 1.10,2013-05-05 10:21:00,
2013-05-05 05:36:00,52.9,52.0,30.00,NE,49,5.0,7.0,97,0.00,,,0.00,weatherlink.com 1.10,2013-05-05 10:36:00,
2013-05-05 05:51:00,53.6,53.0,30.00,North,11,3.0,7.0,97,0.00,,,0.00,weatherlink.com 1.10,2013-05-05 10:51:00,
2013-05-05 06:06:00,53.3,53.0,30.01,NE,51,3.0,5.0,97,0.00,,,0.00,weatherlink.com 1.10,2013-05-05 11:06:00,
2013-05-05 06:21:00,53.4,53.0,30.01,North,355,2.0,5.0,97,0.00,,,0.00,weatherlink.com 1.10,2013-05-05 11:21:00,
2013-05-05 06:36:00,53.6,53.0,30.01,NE,40,2.0,4.0,97,0.00,,,0.00,weatherlink.com 1.10,2013-05-05 11:36:00,
2013-05-05 06:51:00,53.7,53.0,30.01,NNE,14,4.0,8.0,97,0.00,,,0.00,weatherlink.com 1.10,2013-05-05 11:51:00,
2013-05-05 07:06:00,53.8,53.0,30.01,North,4,2.0,7.0,97,0.00,,,0.00,weatherlink.com 1.10,2013-05-05 12:06:00,
2013-05-05 07:21:00,53.6,53.0,30.01,NNW,345,8.0,10.0,97,0.00,,,0.00,weatherlink.com 1.10,2013-05-05 12:21:00,
2013-05-05 07:36:00,53.4,53.0,30.01,NNE,30,5.0,10.0,98,0.00,,,0.00,weatherlink.com 1.10,2013-05-05 12:36:00,
2013-05-05 07:51:00,53.6,53.0,30.01,North,11,9.0,10.0,98,0.00,,,0.00,weatherlink.com 1.10,2013-05-05 12:51:00,
2013-05-05 08:06:00,53.7,53.0,30.01,North,352,4.0,9.0,98,0.00,,,0.00,weatherlink.com 1.10,2013-05-05 13:06:00,
2013-05-05 08:21:00,54.5,54.0,30.02,NNE,22,8.0,8.0,98,0.00,,,0.00,weatherlink.com 1.10,2013-05-05 13:21:00,
2013-05-05 08:36:00,54.4,54.0,30.02,North,10,8.0,11.0,98,0.00,,,0.00,weatherlink.com 1.10,2013-05-05 13:36:00,
2013-05-05 09:00:00,55.3,55.0,30.02,NE,40,7.0,11.0,98,0.00,,,0.00,weatherlink.com 1.10,2013-05-05 14:00:00,
2013-05-05 09:07:00,55.7,55.0,30.02,NE,35,9.0,12.0,98,0.00,,,0.00,weatherlink.com 1.10,2013-05-05 14:07:00,
2013-05-05 09:22:00,56.3,56.0,30.02,NE,49,7.0,14.0,98,0.00,,,0.00,weatherlink.com 1.10,2013-05-05 14:22:00,
2013-05-05 09:37:00,56.8,56.0,30.02,East,79,8.0,11.0,97,0.00,,,0.00,weatherlink.com 1.10,2013-05-05 14:37:00,
2013-05-05 09:52:00,57.9,57.0,30.02,East,101,9.0,13.0,96,0.00,,,0.00,weatherlink.com 1.10,2013-05-05 14:52:00,
2013-05-05 10:07:00,59.5,57.0,30.02,ENE,73,7.0,12.0,91,0.00,,,0.00,weatherlink.com 1.10,2013-05-05 15:07:00,
2013-05-05 10:22:00,59.7,56.0,30.01,East,95,9.0,13.0,88,0.00,,,0.00,weatherlink.com 1.10,2013-05-05 15:22:00,
2013-05-05 10:37:00,61.0,56.0,30.02,NE,50,6.0,12.0,84,0.00,,,0.00,weatherlink.com 1.10,2013-05-05 15:37:00,
2013-05-05 10:52:00,62.6,57.0,30.01,North,11,5.0,8.0,83,0.00,,,0.00,weatherlink.com 1.10,2013-05-05 15:52:00,
2013-05-05 11:06:00,63.2,55.0,30.02,ENE,59,7.0,12.0,75,0.00,,,0.00,weatherlink.com 1.10,2013-05-05 16:06:00,
2013-05-05 11:22:00,63.7,55.0,30.01,East,91,7.0,12.0,72,0.00,,,0.00,weatherlink.com 1.10,2013-05-05 16:22:00,
2013-05-05 11:37:00,64.6,54.0,30.01,ENE,64,5.0,13.0,69,0.00,,,0.00,weatherlink.com 1.10,2013-05-05 16:37:00,
2013-05-05 11:52:00,65.5,52.0,30.01,East,79,8.0,12.0,63,0.00,,,0.00,weatherlink.com 1.10,2013-05-05 16:52:00,
2013-05-05 12:07:00,66.3,52.0,30.01,ENE,57,10.0,14.0,61,0.00,,,0.00,weatherlink.com 1.10,2013-05-05 17:07:00,
2013-05-05 12:22:00,66.7,53.0,30.00,NE,46,8.0,11.0,61,0.00,,,0.00,weatherlink.com 1.10,2013-05-05 17:22:00,
2013-05-05 12:37:00,67.9,53.0,29.99,NE,35,8.0,10.0,59,0.00,,,0.00,weatherlink.com 1.10,2013-05-05 17:37:00,
2013-05-05 12:52:00,68.5,52.0,29.98,East,97,10.0,12.0,55,0.00,,,0.00,weatherlink.com 1.10,2013-05-05 17:52:00,
2013-05-05 13:08:00,69.0,53.0,29.98,ENE,64,7.0,13.0,57,0.00,,,0.00,weatherlink.com 1.10,2013-05-05 18:08:00,
2013-05-05 13:23:00,69.7,52.0,29.97,East,84,3.0,13.0,54,0.00,,,0.00,weatherlink.com 1.10,2013-05-05 18:23:00,
2013-05-05 13:38:00,70.7,53.0,29.97,East,99,7.0,14.0,53,0.00,,,0.00,weatherlink.com 1.10,2013-05-05 18:38:00,
2013-05-05 13:53:00,70.9,53.0,29.96,ENE,78,4.0,13.0,53,0.00,,,0.00,weatherlink.com 1.10,2013-05-05 18:53:00,
2013-05-05 14:08:00,71.0,52.0,29.96,East,90,13.0,15.0,51,0.00,,,0.00,weatherlink.com 1.10,2013-05-05 19:08:00,
2013-05-05 14:23:00,71.2,52.0,29.95,NE,42,7.0,13.0,50,0.00,,,0.00,weatherlink.com 1.10,2013-05-05 19:23:00,
2013-05-05 14:38:00,71.9,51.0,29.95,East,99,5.0,14.0,48,0.00,,,0.00,weatherlink.com 1.10,2013-05-05 19:38:00,
2013-05-05 14:53:00,72.0,51.0,29.95,NNE,23,5.0,15.0,48,0.00,,,0.00,weatherlink.com 1.10,2013-05-05 19:53:00,
2013-05-05 15:08:00,73.1,52.0,29.94,NE,56,8.0,11.0,47,0.00,,,0.00,weatherlink.com 1.10,2013-05-05 20:08:00,
2013-05-05 15:23:00,72.7,52.0,29.94,East,95,5.0,8.0,48,0.00,,,0.00,weatherlink.com 1.10,2013-05-05 20:23:00,
2013-05-05 15:38:00,72.8,50.0,29.94,ENE,75,10.0,13.0,45,0.00,,,0.00,weatherlink.com 1.10,2013-05-05 20:38:00,
2013-05-05 15:53:00,72.7,50.0,29.94,East,96,4.0,10.0,45,0.00,,,0.00,weatherlink.com 1.10,2013-05-05 20:53:00,
2013-05-05 16:08:00,72.9,50.0,29.94,ESE,104,6.0,12.0,44,0.00,,,0.00,weatherlink.com 1.10,2013-05-05 21:08:00,
2013-05-05 16:23:00,73.6,51.0,29.94,ENE,67,6.0,17.0,45,0.00,,,0.00,weatherlink.com 1.10,2013-05-05 21:23:00,
2013-05-05 16:38:00,73.5,48.0,29.94,East,99,7.0,12.0,41,0.00,,,0.00,weatherlink.com 1.10,2013-05-05 21:38:00,
2013-05-05 16:53:00,72.7,48.0,29.94,ESE,102,7.0,11.0,42,0.00,,,0.00,weatherlink.com 1.10,2013-05-05 21:53:00,
2013-05-05 17:08:00,73.0,48.0,29.94,ENE,63,5.0,9.0,42,0.00,,,0.00,weatherlink.com 1.10,2013-05-05 22:08:00,
2013-05-05 17:23:00,73.1,49.0,29.94,NNE,23,5.0,13.0,42,0.00,,,0.00,weatherlink.com 1.10,2013-05-05 22:23:00,
2013-05-05 17:38:00,72.7,49.0,29.94,ENE,61,10.0,11.0,43,0.00,,,0.00,weatherlink.com 1.10,2013-05-05 22:38:00,
2013-05-05 17:53:00,72.0,48.0,29.94,NE,51,6.0,13.0,43,0.00,,,0.00,weatherlink.com 1.10,2013-05-05 22:53:00,
2013-05-05 18:08:00,71.4,48.0,29.94,East,91,4.0,7.0,44,0.00,,,0.00,weatherlink.com 1.10,2013-05-05 23:08:00,
2013-05-05 18:23:00,71.5,50.0,29.94,ENE,59,2.0,8.0,46,0.00,,,0.00,weatherlink.com 1.10,2013-05-05 23:23:00,
2013-05-05 18:38:00,71.9,49.0,29.94,ENE,60,6.0,8.0,45,0.00,,,0.00,weatherlink.com 1.10,2013-05-05 23:38:00,
2013-05-05 18:53:00,71.2,50.0,29.94,ENE,75,3.0,8.0,47,0.00,,,0.00,weatherlink.com 1.10,2013-05-05 23:53:00,
2013-05-05 19:08:00,70.2,50.0,29.94,NNE,33,5.0,8.0,49,0.00,,,0.00,weatherlink.com 1.10,2013-05-06 00:08:00,
2013-05-05 19:23:00,69.3,51.0,29.95,NE,47,5.0,6.0,52,0.00,,,0.00,weatherlink.com 1.10,2013-05-06 00:23:00,
2013-05-05 19:38:00,68.5,51.0,29.95,ESE,104,3.0,6.0,53,0.00,,,0.00,weatherlink.com 1.10,2013-05-06 00:38:00,
2013-05-05 19:53:00,67.9,50.0,29.96,East,97,3.0,7.0,53,0.00,,,0.00,weatherlink.com 1.10,2013-05-06 00:53:00,
2013-05-05 20:08:00,67.1,49.0,29.96,ESE,116,4.0,6.0,52,0.00,,,0.00,weatherlink.com 1.10,2013-05-06 01:08:00,
2013-05-05 20:23:00,66.0,48.0,29.96,East,82,2.0,4.0,53,0.00,,,0.00,weatherlink.com 1.10,2013-05-06 01:23:00,
2013-05-05 20:38:00,65.2,48.0,29.97,East,98,2.0,4.0,55,0.00,,,0.00,weatherlink.com 1.10,2013-05-06 01:38:00,
2013-05-05 20:53:00,64.5,48.0,29.97,SE,130,2.0,4.0,56,0.00,,,0.00,weatherlink.com 1.10,2013-05-06 01:53:00,
2013-05-05 21:08:00,64.0,48.0,29.98,ESE,108,4.0,5.0,56,0.00,,,0.00,weatherlink.com 1.10,2013-05-06 02:08:00,
2013-05-05 21:23:00,63.5,48.0,29.98,ESE,109,3.0,4.0,57,0.00,,,0.00,weatherlink.com 1.10,2013-05-06 02:23:00,
2013-05-05 21:38:00,63.3,48.0,29.99,East,97,2.0,4.0,58,0.00,,,0.00,weatherlink.com 1.10,2013-05-06 02:38:00,
2013-05-05 21:53:00,62.9,48.0,29.99,ESE,111,1.0,4.0,58,0.00,,,0.00,weatherlink.com 1.10,2013-05-06 02:53:00,
2013-05-05 22:07:00,62.2,48.0,30.00,SE,140,3.0,4.0,60,0.00,,,0.00,weatherlink.com 1.10,2013-05-06 03:07:00,
2013-05-05 22:23:00,61.4,48.0,30.00,SE,135,2.0,5.0,61,0.00,,,0.00,weatherlink.com 1.10,2013-05-06 03:23:00,
2013-05-05 22:38:00,61.0,48.0,30.00,SE,126,1.0,3.0,63,0.00,,,0.00,weatherlink.com 1.10,2013-05-06 03:38:00,
2013-05-05 22:53:00,61.0,49.0,30.00,SSE,160,1.0,3.0,64,0.00,,,0.00,weatherlink.com 1.10,2013-05-06 03:53:00,
2013-05-05 23:07:00,61.0,49.0,30.00,SSE,155,0.0,2.0,65,0.00,,,0.00,weatherlink.com 1.10,2013-05-06 04:07:00,
2013-05-05 23:23:00,60.4,49.0,29.99,SSE,156,0.0,0.0,66,0.00,,,0.00,weatherlink.com 1.10,2013-05-06 04:23:00,
2013-05-05 23:38:00,60.3,49.0,30.00,SSE,156,0.0,0.0,67,0.00,,,0.00,weatherlink.com 1.10,2013-05-06 04:38:00,
2013-05-05 23:53:00,60.9,50.0,30.00,SE,130,0.0,2.0,67,0.00,,,0.00,weatherlink.com 1.10,2013-05-06 04:53:00,